Time;durP1;ratioP1;P1;durP2;ratioP2;P2;SDS_P1;SDS_P2;PMS_P1;PMS_P2;Temp;Humidity;BMP_temperature;BMP_pressure;BME280_temperature;BME280_humidity;BME280_pressure;Samples;Min_cycle;Max_cycle;Signal;HPM_P1;HPM_P2
2020/12/24 00:01:11;;;;;;;;;;;27.50;42.70;;;;;;5078686;28;19913;-63
2020/12/24 00:03:36;;;;;;;;;;;27.50;42.70;;;;;;5074554;28;19917;-63
2020/12/24 00:06:01;;;;;;;;;;;27.50;42.70;;;;;;5075088;28;20374;-63
2020/12/24 00:08:27;;;;;;;;;;;27.50;42.70;;;;;;5092362;28;19912;-63
2020/12/24 00:10:52;;;;;;;;;;;27.50;42.70;;;;;;5073500;28;20286;-64
2020/12/24 00:13:18;;;;;;;;;;;27.40;42.60;;;;;;5093397;28;19961;-63
2020/12/24 00:15:43;;;;;;;;;;;27.50;42.70;;;;;;5093266;28;20286;-63
2020/12/24 00:18:09;;;;;;;;;;;27.40;42.60;;;;;;5073221;28;19999;-64
2020/12/24 00:20:34;;;;;;;;;;;27.50;42.70;;;;;;5073287;28;19913;-64
2020/12/24 00:23:00;;;;;;;;;;;27.50;42.70;;;;;;5090282;28;20346;-64
2020/12/24 00:25:26;;;;;;;;;;;27.40;42.70;;;;;;5093416;28;19912;-64
2020/12/24 00:27:51;;;;;;;;;;;27.50;42.70;;;;;;5092146;28;19920;-64
2020/12/24 00:30:16;;;;;;;;;;;27.50;42.70;;;;;;5073126;28;19912;-64
2020/12/24 00:32:42;;;;;;;;;;;27.50;42.70;;;;;;5075077;28;19913;-64
2020/12/24 00:35:07;;;;;;;;;;;27.50;42.70;;;;;;5082351;28;19916;-64
2020/12/24 00:37:33;;;;;;;;;;;27.50;42.70;;;;;;5088954;28;19999;-64
2020/12/24 00:39:58;;;;;;;;;;;27.50;42.70;;;;;;5073028;28;19916;-64
2020/12/24 00:42:24;;;;;;;;;;;27.50;42.70;;;;;;5072878;28;19909;-64
2020/12/24 00:44:49;;;;;;;;;;;27.50;42.70;;;;;;5072834;28;19909;-64
2020/12/24 00:47:15;;;;;;;;;;;27.50;42.70;;;;;;5072785;28;20290;-64
2020/12/24 00:49:40;;;;;;;;;;;27.50;42.70;;;;;;5052619;28;19982;-64
2020/12/24 00:52:06;;;;;;;;;;;27.50;42.70;;;;;;5074542;28;19908;-64
2020/12/24 00:54:31;;;;;;;;;;;27.40;42.70;;;;;;5093050;28;20320;-64
2020/12/24 00:56:58;;;;;;;;;;;27.50;42.70;;;;;;5092819;28;20344;-64
2020/12/24 00:59:23;;;;;;;;;;;27.50;42.70;;;;;;5081954;28;20374;-64
2020/12/24 01:01:48;;;;;;;;;;;27.50;42.70;;;;;;5077695;28;19958;-64
2020/12/24 01:04:14;;;;;;;;;;;27.40;42.70;;;;;;5079935;28;19931;-64
2020/12/24 01:06:39;;;;;;;;;;;27.40;42.60;;;;;;5087448;28;19912;-64
2020/12/24 01:09:05;;;;;;;;;;;27.50;42.60;;;;;;5076527;28;19913;-64
2020/12/24 01:11:30;;;;;;;;;;;27.50;42.60;;;;;;5082218;28;19909;-64
2020/12/24 01:13:56;;;;;;;;;;;27.40;42.60;;;;;;5091855;28;19912;-64
2020/12/24 01:16:21;;;;;;;;;;;27.40;42.70;;;;;;5076253;28;19908;-64
2020/12/24 01:18:47;;;;;;;;;;;27.40;42.60;;;;;;5076401;28;20011;-64
2020/12/24 01:21:12;;;;;;;;;;;27.40;42.70;;;;;;5079685;28;20684;-64
2020/12/24 01:23:38;;;;;;;;;;;27.40;42.70;;;;;;5096675;28;20320;-64
2020/12/24 01:26:05;;;;;;;;;;;27.40;42.70;;;;;;5095722;28;19947;-64
2020/12/24 01:28:31;;;;;;;;;;;27.40;42.70;;;;;;5086534;28;19920;-64
2020/12/24 01:30:56;;;;;;;;;;;27.40;42.60;;;;;;5096246;28;19914;-64
2020/12/24 01:33:21;;;;;;;;;;;27.40;42.60;;;;;;5091437;28;19912;-64
2020/12/24 01:35:47;;;;;;;;;;;27.40;42.70;;;;;;5094533;28;20316;-64
2020/12/24 01:38:12;;;;;;;;;;;27.40;42.60;;;;;;5093189;28;20357;-64
2020/12/24 01:40:38;;;;;;;;;;;27.40;42.60;;;;;;5085198;28;19939;-64
2020/12/24 01:43:03;;;;;;;;;;;27.40;42.60;;;;;;5096413;28;19912;-64
2020/12/24 01:45:30;;;;;;;;;;;27.40;42.70;;;;;;5096324;28;20335;-64
2020/12/24 01:47:56;;;;;;;;;;;27.50;42.70;;;;;;5092899;28;19916;-64
2020/12/24 01:50:21;;;;;;;;;;;27.50;42.70;;;;;;5096231;28;20251;-64
2020/12/24 01:52:47;;;;;;;;;;;27.40;42.60;;;;;;5079348;28;19959;-64
2020/12/24 01:55:12;;;;;;;;;;;27.40;42.60;;;;;;5081509;28;20424;-64
2020/12/24 01:57:38;;;;;;;;;;;27.40;42.60;;;;;;5087095;28;19924;-63
2020/12/24 02:00:07;;;;;;;;;;;27.50;42.60;;;;;;5096015;28;19914;-64
2020/12/24 02:02:32;;;;;;;;;;;27.40;42.50;;;;;;5092483;28;19912;-64
2020/12/24 02:04:58;;;;;;;;;;;27.40;42.50;;;;;;5079354;28;19912;-64
2020/12/24 02:07:23;;;;;;;;;;;27.50;42.70;;;;;;5089903;28;20290;-64
2020/12/24 02:09:50;;;;;;;;;;;27.50;42.60;;;;;;5094550;28;20008;-64
2020/12/24 02:12:15;;;;;;;;;;;27.40;42.60;;;;;;5095618;28;20440;-64
2020/12/24 02:14:41;;;;;;;;;;;27.40;42.60;;;;;;5095461;28;19994;-64
2020/12/24 02:17:07;;;;;;;;;;;27.50;42.60;;;;;;5083405;28;19959;-64
2020/12/24 02:19:32;;;;;;;;;;;27.40;42.60;;;;;;5074981;28;19959;-64
2020/12/24 02:21:58;;;;;;;;;;;27.40;42.60;;;;;;5088894;28;19934;-63
2020/12/24 02:24:23;;;;;;;;;;;27.40;42.60;;;;;;5095324;28;19939;-63
2020/12/24 02:26:48;;;;;;;;;;;27.40;42.60;;;;;;5092717;28;19928;-63
2020/12/24 02:29:14;;;;;;;;;;;27.40;42.60;;;;;;5077826;28;20369;-64
2020/12/24 02:31:39;;;;;;;;;;;27.40;42.60;;;;;;5084212;28;19923;-64
2020/12/24 02:34:05;;;;;;;;;;;27.40;42.70;;;;;;5093549;28;20312;-63
2020/12/24 02:36:30;;;;;;;;;;;27.40;42.70;;;;;;5093302;28;19912;-63
2020/12/24 02:38:56;;;;;;;;;;;27.40;42.60;;;;;;5094382;28;19920;-63
2020/12/24 02:41:21;;;;;;;;;;;27.40;42.60;;;;;;5095230;28;20358;-63
2020/12/24 02:43:49;;;;;;;;;;;27.40;42.60;;;;;;5094862;28;19917;-63
2020/12/24 02:46:15;;;;;;;;;;;27.40;42.50;;;;;;5081764;28;19916;-63
2020/12/24 02:48:41;;;;;;;;;;;27.40;42.60;;;;;;5074845;28;19908;-63
2020/12/24 02:51:08;;;;;;;;;;;27.40;42.60;;;;;;5076788;28;20379;-63
2020/12/24 02:53:33;;;;;;;;;;;27.40;42.60;;;;;;5095095;28;19916;-63
2020/12/24 02:55:59;;;;;;;;;;;27.40;42.50;;;;;;5092895;28;20302;-63
2020/12/24 02:58:24;;;;;;;;;;;27.40;42.50;;;;;;5084734;28;19920;-63
2020/12/24 03:00:50;;;;;;;;;;;27.40;42.50;;;;;;5093340;28;19916;-63
2020/12/24 03:03:16;;;;;;;;;;;27.40;42.50;;;;;;5087550;28;19920;-63
2020/12/24 03:05:42;;;;;;;;;;;27.40;42.60;;;;;;5094672;28;19909;-63
2020/12/24 03:08:07;;;;;;;;;;;27.40;42.60;;;;;;5094529;28;19908;-63
2020/12/24 03:10:33;;;;;;;;;;;27.40;42.60;;;;;;5093031;28;19920;-64
2020/12/24 03:12:58;;;;;;;;;;;27.40;42.60;;;;;;5075568;28;20415;-64
2020/12/24 03:15:24;;;;;;;;;;;27.40;42.60;;;;;;5074014;28;19916;-64
2020/12/24 03:17:49;;;;;;;;;;;27.40;42.60;;;;;;5074082;28;19965;-63
2020/12/24 03:20:15;;;;;;;;;;;27.40;42.60;;;;;;5074104;28;20325;-63
2020/12/24 03:22:40;;;;;;;;;;;27.40;42.50;;;;;;5089456;28;19919;-63
2020/12/24 03:25:06;;;;;;;;;;;27.50;42.50;;;;;;5094155;28;19912;-63
2020/12/24 03:27:31;;;;;;;;;;;27.40;42.50;;;;;;5092889;28;19924;-63
2020/12/24 03:29:57;;;;;;;;;;;27.50;42.50;;;;;;5093571;28;19916;-63
2020/12/24 03:32:22;;;;;;;;;;;27.50;42.50;;;;;;5080611;28;19995;-64
2020/12/24 03:34:48;;;;;;;;;;;27.40;42.40;;;;;;5093405;28;19912;-64
2020/12/24 03:37:13;;;;;;;;;;;27.40;42.40;;;;;;5092226;28;19999;-64
2020/12/24 03:39:39;;;;;;;;;;;27.40;42.50;;;;;;5083631;28;20451;-64
2020/12/24 03:42:04;;;;;;;;;;;27.40;42.50;;;;;;5083960;28;19915;-64
2020/12/24 03:44:30;;;;;;;;;;;27.40;42.50;;;;;;5094033;28;19912;-64
2020/12/24 03:46:55;;;;;;;;;;;27.40;42.50;;;;;;5084343;28;19958;-64
2020/12/24 03:49:21;;;;;;;;;;;27.40;42.50;;;;;;5088365;28;19916;-64
2020/12/24 03:51:46;;;;;;;;;;;27.40;42.50;;;;;;5093896;28;19912;-64
2020/12/24 03:54:11;;;;;;;;;;;27.40;42.50;;;;;;5093581;28;19919;-63
2020/12/24 03:56:37;;;;;;;;;;;27.40;42.50;;;;;;5085589;28;19961;-64
2020/12/24 03:59:02;;;;;;;;;;;27.40;42.50;;;;;;5056088;28;19936;-64
2020/12/24 04:01:28;;;;;;;;;;;27.40;42.50;;;;;;5053254;28;19924;-64
2020/12/24 04:03:53;;;;;;;;;;;27.40;42.50;;;;;;5086064;28;19919;-64
2020/12/24 04:06:19;;;;;;;;;;;27.40;42.50;;;;;;5081949;28;20371;-64
2020/12/24 04:08:44;;;;;;;;;;;27.40;42.50;;;;;;5073158;28;19912;-64
2020/12/24 04:11:10;;;;;;;;;;;27.40;42.40;;;;;;5075990;28;19962;-64
2020/12/24 04:13:35;;;;;;;;;;;27.40;42.40;;;;;;5092334;28;19920;-64
2020/12/24 04:16:01;;;;;;;;;;;27.40;42.40;;;;;;5093613;28;19908;-64
2020/12/24 04:18:26;;;;;;;;;;;27.40;42.40;;;;;;5075570;28;19920;-64
2020/12/24 04:20:52;;;;;;;;;;;27.40;42.50;;;;;;5086116;28;19912;-64
2020/12/24 04:23:17;;;;;;;;;;;27.40;42.40;;;;;;5087629;28;19922;-64
2020/12/24 04:25:43;;;;;;;;;;;27.40;42.40;;;;;;5093145;28;19916;-64
2020/12/24 04:28:08;;;;;;;;;;;27.40;42.40;;;;;;5091590;28;19920;-63
2020/12/24 04:30:34;;;;;;;;;;;27.40;42.40;;;;;;5093125;28;19915;-64
2020/12/24 04:32:59;;;;;;;;;;;27.40;42.30;;;;;;5074867;28;19927;-64
2020/12/24 04:35:24;;;;;;;;;;;27.40;42.30;;;;;;5081144;28;19912;-63
2020/12/24 04:37:50;;;;;;;;;;;27.40;42.20;;;;;;5093058;28;19912;-63
2020/12/24 04:40:16;;;;;;;;;;;27.50;42.30;;;;;;5078484;28;19920;-64
2020/12/24 04:42:41;;;;;;;;;;;27.50;42.20;;;;;;5073001;28;19931;-63
2020/12/24 04:45:07;;;;;;;;;;;27.50;42.20;;;;;;5073847;28;19908;-63
2020/12/24 04:47:32;;;;;;;;;;;27.40;42.10;;;;;;5078435;28;19920;-63
2020/12/24 04:49:58;;;;;;;;;;;27.50;42.20;;;;;;5072627;28;20367;-63
2020/12/24 04:52:23;;;;;;;;;;;27.50;42.20;;;;;;5085939;28;20007;-63
2020/12/24 04:54:49;;;;;;;;;;;27.50;42.10;;;;;;5084576;28;20355;-63
2020/12/24 04:57:14;;;;;;;;;;;27.50;42.10;;;;;;5082511;28;19934;-63
2020/12/24 04:59:40;;;;;;;;;;;27.50;42.10;;;;;;5092647;28;19923;-63
2020/12/24 05:02:05;;;;;;;;;;;27.50;42.10;;;;;;5076174;28;19970;-64
2020/12/24 05:04:31;;;;;;;;;;;27.50;42.10;;;;;;5093072;28;19908;-63
2020/12/24 05:07:03;;;;;;;;;;;27.50;42.10;;;;;;5086600;28;20266;-63
2020/12/24 05:09:29;;;;;;;;;;;27.50;42.10;;;;;;5083226;28;19916;-63
2020/12/24 05:11:54;;;;;;;;;;;27.50;42.00;;;;;;5093057;28;19916;-63
2020/12/24 05:14:23;;;;;;;;;;;27.50;42.00;;;;;;5078902;28;19912;-64
2020/12/24 05:16:59;;;;;;;;;;;27.50;42.00;;;;;;5076830;28;19916;-63
2020/12/24 05:19:25;;;;;;;;;;;27.50;42.00;;;;;;5072477;28;19939;-63
2020/12/24 05:21:50;;;;;;;;;;;27.50;42.00;;;;;;5079317;28;20362;-63
2020/12/24 05:24:23;;;;;;;;;;;27.50;42.00;;;;;;5092895;28;19912;-63
2020/12/24 05:26:48;;;;;;;;;;;27.50;41.90;;;;;;5091916;28;20022;-63
2020/12/24 05:29:14;;;;;;;;;;;27.50;41.90;;;;;;5079075;28;19995;-63
2020/12/24 05:31:39;;;;;;;;;;;27.50;41.90;;;;;;5088633;28;19950;-63
2020/12/24 05:34:05;;;;;;;;;;;27.50;42.00;;;;;;5072602;28;20139;-63
2020/12/24 05:36:30;;;;;;;;;;;27.50;42.00;;;;;;5080984;28;19912;-63
2020/12/24 05:38:56;;;;;;;;;;;27.50;41.90;;;;;;5086685;28;19931;-63
2020/12/24 05:41:40;;;;;;;;;;;27.50;42.00;;;;;;5072490;28;19936;-63
2020/12/24 05:44:06;;;;;;;;;;;27.50;42.00;;;;;;5092736;28;20007;-63
2020/12/24 05:46:39;;;;;;;;;;;27.50;41.90;;;;;;5086147;28;19917;-64
2020/12/24 05:49:17;;;;;;;;;;;27.50;41.90;;;;;;5072044;28;19912;-63
2020/12/24 05:51:46;;;;;;;;;;;27.50;41.90;;;;;;5053362;28;19913;-63
2020/12/24 05:54:12;;;;;;;;;;;27.50;41.90;;;;;;5063628;28;20251;-63
2020/12/24 05:56:37;;;;;;;;;;;27.50;41.90;;;;;;5084295;28;19919;-63
2020/12/24 05:59:04;;;;;;;;;;;27.50;41.90;;;;;;5089167;28;19921;-63
2020/12/24 06:01:29;;;;;;;;;;;27.50;41.90;;;;;;5081023;28;19916;-63
2020/12/24 06:03:59;;;;;;;;;;;27.50;41.90;;;;;;5092802;28;20036;-63
2020/12/24 06:06:41;;;;;;;;;;;27.50;41.90;;;;;;5090514;28;19965;-63
2020/12/24 06:09:15;;;;;;;;;;;27.50;41.90;;;;;;5082118;28;20002;-63
2020/12/24 06:11:43;;;;;;;;;;;27.50;42.00;;;;;;5088182;28;20007;-63
2020/12/24 06:14:12;;;;;;;;;;;27.50;42.00;;;;;;5075607;28;19909;-64
2020/12/24 06:16:37;;;;;;;;;;;27.50;42.00;;;;;;5085621;28;19919;-64
2020/12/24 06:19:03;;;;;;;;;;;27.50;41.90;;;;;;5074571;28;19917;-69
2020/12/24 06:21:28;;;;;;;;;;;27.50;41.90;;;;;;5085341;28;20366;-63
2020/12/24 06:23:57;;;;;;;;;;;27.50;41.80;;;;;;5094500;28;19979;-64
2020/12/24 06:26:24;;;;;;;;;;;27.50;41.90;;;;;;5094691;28;19912;-63
2020/12/24 06:28:50;;;;;;;;;;;27.50;41.90;;;;;;5081386;28;19916;-63
2020/12/24 06:31:17;;;;;;;;;;;27.50;41.90;;;;;;5082749;28;19921;-63
2020/12/24 06:33:42;;;;;;;;;;;27.50;41.80;;;;;;5070301;28;19959;-64
2020/12/24 06:36:12;;;;;;;;;;;27.50;41.90;;;;;;5074971;28;20378;-63
2020/12/24 06:38:47;;;;;;;;;;;27.50;41.80;;;;;;5090260;28;19917;-63
2020/12/24 06:41:42;;;;;;;;;;;27.50;41.80;;;;;;5074714;28;19916;-64
2020/12/24 06:44:10;;;;;;;;;;;27.50;41.80;;;;;;5065710;28;20017;-64
2020/12/24 06:46:54;;;;;;;;;;;27.50;41.80;;;;;;5076080;28;19917;-63
2020/12/24 06:49:29;;;;;;;;;;;27.50;41.80;;;;;;5094879;28;19916;-64
2020/12/24 06:51:54;;;;;;;;;;;27.50;41.80;;;;;;5095170;28;19908;-63
2020/12/24 06:54:24;;;;;;;;;;;27.50;41.90;;;;;;5080668;28;20041;-63
2020/12/24 06:56:49;;;;;;;;;;;27.50;41.80;;;;;;5074754;28;19909;-63
2020/12/24 06:59:19;;;;;;;;;;;27.50;41.80;;;;;;5074593;28;19924;-63
2020/12/24 07:01:45;;;;;;;;;;;27.50;41.80;;;;;;5085194;28;20267;-64
2020/12/24 07:04:11;;;;;;;;;;;27.50;41.80;;;;;;5091459;28;19916;-63
2020/12/24 07:06:39;;;;;;;;;;;27.50;41.80;;;;;;5087529;28;19951;-63
2020/12/24 07:09:05;;;;;;;;;;;27.50;41.80;;;;;;5082413;28;19956;-63
2020/12/24 07:11:40;;;;;;;;;;;27.50;41.80;;;;;;5074517;28;19978;-63
2020/12/24 07:14:05;;;;;;;;;;;27.50;41.70;;;;;;5073519;28;19946;-63
2020/12/24 07:16:46;;;;;;;;;;;27.50;41.70;;;;;;5069508;28;20010;-63
2020/12/24 07:19:14;;;;;;;;;;;27.50;41.70;;;;;;5075380;28;19920;-64
2020/12/24 07:21:39;;;;;;;;;;;27.50;41.70;;;;;;5094516;28;19908;-64
2020/12/24 07:24:04;;;;;;;;;;;27.50;41.70;;;;;;5094202;28;19943;-63
2020/12/24 07:26:30;;;;;;;;;;;27.50;41.70;;;;;;5092347;28;20066;-64
2020/12/24 07:28:55;;;;;;;;;;;27.50;41.80;;;;;;5091511;28;20380;-64
2020/12/24 07:31:23;;;;;;;;;;;27.50;41.80;;;;;;5083186;28;19927;-63
2020/12/24 07:33:48;;;;;;;;;;;27.50;41.70;;;;;;5089764;28;19913;-63
2020/12/24 07:36:14;;;;;;;;;;;27.50;41.80;;;;;;5077119;28;20431;-63
2020/12/24 07:38:39;;;;;;;;;;;27.50;41.80;;;;;;5088121;28;20270;-63
2020/12/24 07:41:05;;;;;;;;;;;27.50;41.70;;;;;;5073760;28;19974;-63
2020/12/24 07:43:30;;;;;;;;;;;27.50;41.70;;;;;;5070962;28;19982;-63
2020/12/24 07:45:56;;;;;;;;;;;27.50;41.70;;;;;;5055118;28;20347;-63
2020/12/24 07:48:22;;;;;;;;;;;27.50;41.70;;;;;;5093411;28;19919;-63
2020/12/24 07:50:48;;;;;;;;;;;27.60;41.70;;;;;;5093415;28;19966;-63
2020/12/24 07:53:22;;;;;;;;;;;27.50;42.30;;;;;;5093638;28;19908;-63
2020/12/24 07:55:48;;;;;;;;;;;27.50;41.60;;;;;;5092013;28;19939;-64
2020/12/24 07:58:14;;;;;;;;;;;27.50;41.60;;;;;;5085942;28;19962;-63
2020/12/24 08:00:46;;;;;;;;;;;27.50;41.60;;;;;;5073280;28;19908;-64
2020/12/24 08:03:15;;;;;;;;;;;27.60;41.70;;;;;;5085811;28;19919;-63
2020/12/24 08:05:41;;;;;;;;;;;27.50;41.60;;;;;;5076076;28;20435;-64
2020/12/24 08:08:06;;;;;;;;;;;27.60;41.70;;;;;;5073756;28;19912;-63
2020/12/24 08:10:42;;;;;;;;;;;27.60;41.60;;;;;;5078952;28;19917;-63
2020/12/24 08:13:08;;;;;;;;;;;27.60;41.70;;;;;;5072957;28;20300;-63
2020/12/24 08:15:34;;;;;;;;;;;27.60;41.60;;;;;;5072801;28;19908;-63
2020/12/24 08:18:00;;;;;;;;;;;27.60;41.60;;;;;;5076743;28;20363;-63
2020/12/24 08:20:44;;;;;;;;;;;27.50;41.50;;;;;;5071909;28;19916;-63
2020/12/24 08:23:12;;;;;;;;;;;27.60;41.60;;;;;;5089174;28;19908;-63
2020/12/24 08:25:37;;;;;;;;;;;27.50;41.60;;;;;;5092210;28;19966;-63
2020/12/24 08:28:03;;;;;;;;;;;27.60;41.70;;;;;;5082123;28;19921;-63
2020/12/24 08:30:28;;;;;;;;;;;27.50;41.60;;;;;;5088856;28;19944;-63
2020/12/24 08:32:54;;;;;;;;;;;27.50;41.60;;;;;;5090526;28;19965;-63
2020/12/24 08:35:19;;;;;;;;;;;27.50;41.60;;;;;;5093354;28;19915;-63
2020/12/24 08:37:45;;;;;;;;;;;27.50;41.60;;;;;;5083089;28;20293;-63
2020/12/24 08:40:17;;;;;;;;;;;27.60;41.70;;;;;;5074856;28;19916;-63
2020/12/24 08:42:42;;;;;;;;;;;27.50;41.60;;;;;;5072788;28;20319;-63
2020/12/24 08:45:07;;;;;;;;;;;27.50;41.60;;;;;;5071578;28;19916;-63
2020/12/24 08:47:37;;;;;;;;;;;27.50;41.50;;;;;;5073173;28;19909;-64
2020/12/24 08:50:02;;;;;;;;;;;27.60;41.60;;;;;;5091476;28;19923;-63
2020/12/24 08:52:34;;;;;;;;;;;27.50;41.50;;;;;;5092832;28;19908;-64
2020/12/24 08:55:06;;;;;;;;;;;27.60;41.50;;;;;;5093162;28;19908;-63
2020/12/24 08:57:32;;;;;;;;;;;27.60;41.50;;;;;;5079131;28;20274;-63
2020/12/24 08:59:58;;;;;;;;;;;27.60;41.40;;;;;;5077802;28;19916;-63
2020/12/24 09:02:24;;;;;;;;;;;27.60;41.40;;;;;;5091182;28;19913;-64
2020/12/24 09:04:56;;;;;;;;;;;27.60;41.50;;;;;;5091047;28;20415;-63
2020/12/24 09:07:22;;;;;;;;;;;27.60;41.40;;;;;;5092986;28;19923;-63
2020/12/24 09:09:48;;;;;;;;;;;27.50;41.40;;;;;;5093021;28;19966;-63
2020/12/24 09:12:13;;;;;;;;;;;27.50;41.40;;;;;;5086204;28;20354;-63
2020/12/24 09:14:39;;;;;;;;;;;27.60;41.40;;;;;;5092215;28;19912;-62
2020/12/24 09:17:07;;;;;;;;;;;27.60;41.40;;;;;;5072847;28;19967;-63
2020/12/24 09:19:32;;;;;;;;;;;27.60;41.30;;;;;;5076253;28;20108;-63
2020/12/24 09:21:58;;;;;;;;;;;27.50;41.20;;;;;;5092846;28;20037;-63
2020/12/24 09:24:24;;;;;;;;;;;27.60;41.30;;;;;;5091842;28;20350;-63
2020/12/24 09:26:53;;;;;;;;;;;27.60;41.30;;;;;;5093999;28;19923;-63
2020/12/24 09:29:19;;;;;;;;;;;27.60;41.30;;;;;;5082472;28;19939;-63
2020/12/24 09:32:01;;;;;;;;;;;27.60;41.20;;;;;;5094229;28;19915;-63
2020/12/24 09:34:27;;;;;;;;;;;27.60;41.20;;;;;;5088482;28;19923;-63
2020/12/24 09:36:52;;;;;;;;;;;27.60;41.30;;;;;;5078424;28;19913;-64
2020/12/24 09:39:17;;;;;;;;;;;27.60;41.20;;;;;;5076043;28;19917;-63
2020/12/24 09:41:43;;;;;;;;;;;27.60;41.20;;;;;;5076402;28;20370;-63
2020/12/24 09:44:09;;;;;;;;;;;27.60;41.20;;;;;;5076161;28;20309;-63
2020/12/24 09:46:34;;;;;;;;;;;27.60;41.20;;;;;;5082335;28;20267;-63
2020/12/24 09:49:00;;;;;;;;;;;27.50;41.10;;;;;;5095957;28;20284;-63
2020/12/24 09:51:25;;;;;;;;;;;27.60;41.10;;;;;;5094643;28;19912;-63
2020/12/24 09:53:51;;;;;;;;;;;27.50;41.10;;;;;;5095932;28;20255;-63
2020/12/24 09:56:17;;;;;;;;;;;27.60;41.10;;;;;;5091633;28;19913;-63
2020/12/24 09:58:42;;;;;;;;;;;27.60;41.00;;;;;;5078316;28;19974;-63
2020/12/24 10:01:08;;;;;;;;;;;27.60;41.10;;;;;;5075575;28;20320;-63
2020/12/24 10:03:33;;;;;;;;;;;27.60;41.00;;;;;;5077622;28;19939;-63
2020/12/24 10:05:59;;;;;;;;;;;27.60;41.00;;;;;;5081238;28;20357;-63
2020/12/24 10:08:24;;;;;;;;;;;27.60;41.00;;;;;;5095665;28;19916;-63
2020/12/24 10:10:50;;;;;;;;;;;27.60;41.00;;;;;;5088852;28;19965;-63
2020/12/24 10:13:15;;;;;;;;;;;27.60;41.00;;;;;;5090326;28;20263;-64
2020/12/24 10:15:40;;;;;;;;;;;27.60;41.00;;;;;;5095462;28;19965;-63
2020/12/24 10:18:06;;;;;;;;;;;27.60;41.00;;;;;;5082521;28;19935;-64
2020/12/24 10:20:31;;;;;;;;;;;27.60;41.00;;;;;;5095686;28;20277;-63
2020/12/24 10:22:57;;;;;;;;;;;27.60;41.00;;;;;;5088605;28;19957;-63
2020/12/24 10:25:22;;;;;;;;;;;27.60;40.90;;;;;;5095628;28;19908;-63
2020/12/24 10:27:48;;;;;;;;;;;27.60;40.90;;;;;;5092069;28;19924;-63
2020/12/24 10:30:13;;;;;;;;;;;27.60;40.80;;;;;;5075585;28;19934;-63
2020/12/24 10:32:40;;;;;;;;;;;27.60;40.80;;;;;;5078025;28;19946;-63
2020/12/24 10:35:05;;;;;;;;;;;27.60;40.80;;;;;;5055241;28;20267;-63
2020/12/24 10:37:31;;;;;;;;;;;27.60;40.80;;;;;;5068233;28;19999;-63
2020/12/24 10:39:56;;;;;;;;;;;27.60;41.40;;;;;;5075326;28;20014;-63
2020/12/24 10:42:22;;;;;;;;;;;27.60;40.80;;;;;;5074935;28;19913;-63
2020/12/24 10:44:47;;;;;;;;;;;27.60;40.80;;;;;;5082510;28;19966;-63
2020/12/24 10:47:12;;;;;;;;;;;27.60;40.70;;;;;;5083076;28;20343;-63
2020/12/24 10:49:41;;;;;;;;;;;27.70;40.80;;;;;;5074826;28;19923;-64
2020/12/24 10:52:06;;;;;;;;;;;27.60;41.30;;;;;;5074744;28;19919;-63
2020/12/24 10:54:32;;;;;;;;;;;27.60;40.70;;;;;;5074900;28;20258;-63
2020/12/24 10:56:57;;;;;;;;;;;27.60;40.70;;;;;;5081515;28;20012;-63
2020/12/24 10:59:23;;;;;;;;;;;27.60;40.70;;;;;;5086480;28;20350;-64
2020/12/24 11:01:48;;;;;;;;;;;27.60;40.60;;;;;;5080119;28;19915;-63
2020/12/24 11:04:14;;;;;;;;;;;27.60;40.60;;;;;;5075303;28;20309;-63
2020/12/24 11:06:42;;;;;;;;;;;27.70;40.70;;;;;;5086464;28;19914;-63
2020/12/24 11:09:08;;;;;;;;;;;27.70;40.60;;;;;;5094831;28;19912;-64
2020/12/24 11:11:34;;;;;;;;;;;27.70;40.60;;;;;;5086104;28;19995;-63
2020/12/24 11:13:59;;;;;;;;;;;27.70;40.60;;;;;;5086115;28;20265;-63
2020/12/24 11:16:25;;;;;;;;;;;27.60;40.60;;;;;;5089167;28;20430;-63
2020/12/24 11:18:50;;;;;;;;;;;27.60;40.60;;;;;;5074250;28;19931;-63
2020/12/24 11:21:16;;;;;;;;;;;27.60;40.60;;;;;;5074329;28;20385;-63
2020/12/24 11:23:42;;;;;;;;;;;27.70;40.60;;;;;;5091982;28;20053;-64
2020/12/24 11:26:07;;;;;;;;;;;27.60;40.60;;;;;;5090597;28;19948;-64
2020/12/24 11:28:33;;;;;;;;;;;27.70;40.60;;;;;;5078898;28;20020;-64
2020/12/24 11:30:58;;;;;;;;;;;27.70;40.60;;;;;;5094367;28;19937;-64
2020/12/24 11:33:24;;;;;;;;;;;27.70;40.60;;;;;;5083330;28;19912;-63
2020/12/24 11:35:49;;;;;;;;;;;27.60;40.60;;;;;;5083332;28;19922;-64
2020/12/24 11:38:15;;;;;;;;;;;27.60;40.60;;;;;;5088135;28;20370;-63
2020/12/24 11:40:40;;;;;;;;;;;27.70;40.70;;;;;;5074917;28;19958;-63
2020/12/24 11:43:06;;;;;;;;;;;27.70;40.60;;;;;;5073566;28;19959;-63
2020/12/24 11:45:31;;;;;;;;;;;27.70;40.60;;;;;;5073482;28;19913;-63
2020/12/24 11:47:57;;;;;;;;;;;27.60;40.60;;;;;;5091475;28;19918;-63
2020/12/24 11:50:22;;;;;;;;;;;27.70;40.60;;;;;;5093122;28;19908;-63
2020/12/24 11:52:48;;;;;;;;;;;27.70;40.60;;;;;;5082560;28;19919;-63
2020/12/24 11:55:13;;;;;;;;;;;27.70;40.60;;;;;;5093735;28;19909;-63
2020/12/24 11:57:39;;;;;;;;;;;27.70;40.60;;;;;;5091737;28;19912;-63
2020/12/24 12:00:07;;;;;;;;;;;27.70;40.50;;;;;;5088603;28;19919;-63
2020/12/24 12:02:33;;;;;;;;;;;27.70;40.50;;;;;;5089194;28;20374;-63
2020/12/24 12:04:58;;;;;;;;;;;27.70;40.60;;;;;;5081313;28;19919;-63
2020/12/24 12:07:24;;;;;;;;;;;27.70;40.60;;;;;;5093764;28;20317;-63
2020/12/24 12:09:50;;;;;;;;;;;27.60;40.60;;;;;;5083365;28;20259;-63
2020/12/24 12:12:15;;;;;;;;;;;27.70;40.60;;;;;;5073162;28;20003;-63
2020/12/24 12:14:40;;;;;;;;;;;27.70;40.50;;;;;;5073333;28;19908;-63
2020/12/24 12:17:06;;;;;;;;;;;27.70;40.60;;;;;;5074333;28;20367;-63
2020/12/24 12:19:31;;;;;;;;;;;27.60;40.50;;;;;;5072969;28;19920;-63
2020/12/24 12:21:57;;;;;;;;;;;27.70;40.60;;;;;;5078095;28;19915;-63
2020/12/24 12:24:22;;;;;;;;;;;27.70;40.60;;;;;;5093298;28;19953;-63
2020/12/24 12:26:48;;;;;;;;;;;27.70;40.60;;;;;;5092267;28;20332;-63
2020/12/24 12:29:14;;;;;;;;;;;27.70;40.50;;;;;;5086965;28;19912;-63
2020/12/24 12:31:39;;;;;;;;;;;27.70;40.50;;;;;;5093150;28;19908;-63
2020/12/24 12:34:05;;;;;;;;;;;27.70;40.40;;;;;;5078001;28;19938;-63
2020/12/24 12:36:30;;;;;;;;;;;27.60;40.50;;;;;;5074103;28;20294;-63
2020/12/24 12:38:56;;;;;;;;;;;27.60;40.50;;;;;;5088537;28;19920;-63
2020/12/24 12:41:21;;;;;;;;;;;27.70;40.50;;;;;;5076377;28;19916;-63
2020/12/24 12:43:47;;;;;;;;;;;27.70;40.50;;;;;;5084674;28;19923;-63
2020/12/24 12:46:19;;;;;;;;;;;27.70;40.50;;;;;;5072963;28;19938;-63
2020/12/24 12:48:44;;;;;;;;;;;27.70;40.50;;;;;;5073317;28;19913;-63
2020/12/24 12:51:10;;;;;;;;;;;27.60;40.40;;;;;;5072630;28;19909;-63
2020/12/24 12:53:35;;;;;;;;;;;27.60;40.40;;;;;;5072825;28;19909;-63
2020/12/24 12:56:01;;;;;;;;;;;27.70;40.40;;;;;;5073969;28;20366;-63
2020/12/24 12:58:27;;;;;;;;;;;27.60;40.40;;;;;;5089831;28;20389;-63
2020/12/24 13:00:53;;;;;;;;;;;27.70;40.30;;;;;;5079779;28;19955;-64
2020/12/24 13:03:20;;;;;;;;;;;27.70;40.30;;;;;;5085779;28;20003;-63
2020/12/24 13:05:45;;;;;;;;;;;27.70;40.30;;;;;;5097000;28;19908;-63
2020/12/24 13:08:11;;;;;;;;;;;27.70;40.30;;;;;;5086344;28;19919;-63
2020/12/24 13:10:36;;;;;;;;;;;27.70;40.30;;;;;;5084118;28;19916;-63
2020/12/24 13:13:02;;;;;;;;;;;27.70;40.30;;;;;;5090455;28;19913;-63
2020/12/24 13:15:27;;;;;;;;;;;27.60;40.20;;;;;;5096958;28;19980;-63
2020/12/24 13:17:53;;;;;;;;;;;27.60;40.30;;;;;;5096033;28;19916;-63
2020/12/24 13:20:18;;;;;;;;;;;27.60;40.20;;;;;;5096702;28;19909;-63
2020/12/24 13:22:44;;;;;;;;;;;27.70;40.30;;;;;;5094485;28;19912;-63
2020/12/24 13:25:10;;;;;;;;;;;27.70;40.30;;;;;;5096172;28;19912;-63
2020/12/24 13:27:35;;;;;;;;;;;27.70;40.30;;;;;;5085601;28;20086;-63
2020/12/24 13:30:01;;;;;;;;;;;27.70;40.30;;;;;;5087150;28;19919;-63
2020/12/24 13:32:26;;;;;;;;;;;27.70;40.30;;;;;;5095673;28;19912;-63
2020/12/24 13:34:52;;;;;;;;;;;27.70;40.30;;;;;;5077565;28;19954;-63
2020/12/24 13:37:17;;;;;;;;;;;27.70;40.30;;;;;;5096202;28;19922;-64
2020/12/24 13:39:43;;;;;;;;;;;27.70;40.30;;;;;;5076479;28;20393;-63
2020/12/24 13:42:08;;;;;;;;;;;27.70;40.30;;;;;;5075873;28;19913;-63
2020/12/24 13:44:34;;;;;;;;;;;27.70;40.30;;;;;;5076107;28;19912;-63
2020/12/24 13:46:59;;;;;;;;;;;27.70;40.30;;;;;;5075205;28;19912;-63
2020/12/24 13:49:25;;;;;;;;;;;27.70;40.30;;;;;;5076001;28;19915;-63
2020/12/24 13:51:51;;;;;;;;;;;27.70;40.30;;;;;;5064461;28;20252;-63
2020/12/24 13:54:17;;;;;;;;;;;27.70;40.30;;;;;;5075690;28;19912;-63
2020/12/24 13:56:47;;;;;;;;;;;27.70;40.30;;;;;;5078628;28;19927;-63
2020/12/24 13:59:12;;;;;;;;;;;27.70;40.30;;;;;;5090867;28;20339;-63
2020/12/24 14:01:38;;;;;;;;;;;27.70;40.30;;;;;;5075899;28;19915;-63
2020/12/24 14:04:03;;;;;;;;;;;27.60;40.20;;;;;;5081716;28;20294;-63
2020/12/24 14:06:29;;;;;;;;;;;27.70;40.30;;;;;;5076231;28;19912;-63
2020/12/24 14:08:54;;;;;;;;;;;27.60;40.20;;;;;;5094728;28;19908;-63
2020/12/24 14:11:20;;;;;;;;;;;27.60;40.20;;;;;;5090690;28;20378;-63